createdAt,value
2022-10-17T00:00:32.596Z,11.52
2022-10-17T00:02:59.981Z,12.05
2022-10-17T00:05:27.512Z,12.25
2022-10-17T00:07:55.591Z,12.18
2022-10-17T00:10:23.148Z,12.15
2022-10-17T00:12:51.791Z,12.65
2022-10-17T00:15:20.470Z,12.00
2022-10-17T00:17:48.165Z,12.88
2022-10-17T00:20:16.199Z,12.70
2022-10-17T00:22:43.697Z,12.18
2022-10-17T00:25:11.577Z,13.02
2022-10-17T00:27:40.140Z,12.45
2022-10-17T00:30:08.665Z,12.52
2022-10-17T00:32:36.269Z,12.55
2022-10-17T00:35:03.768Z,12.80
2022-10-17T00:37:31.681Z,12.80
2022-10-17T00:39:59.423Z,12.20
2022-10-17T00:42:28.019Z,13.57
2022-10-17T00:44:58.769Z,12.95
2022-10-17T00:47:26.341Z,12.82
2022-10-17T00:49:53.832Z,14.20
2022-10-17T00:52:27.235Z,13.90
2022-10-17T00:54:59.240Z,13.52
2022-10-17T00:57:27.916Z,13.48
2022-10-17T00:59:56.758Z,14.18
2022-10-17T01:02:24.683Z,13.52
2022-10-17T01:04:55.167Z,14.40
2022-10-17T01:07:22.833Z,14.18
2022-10-17T01:09:50.812Z,14.60
2022-10-17T01:12:21.809Z,14.95
2022-10-17T01:15:08.026Z,15.23
2022-10-17T01:17:56.978Z,15.68
2022-10-17T01:20:32.953Z,15.07
2022-10-17T01:23:20.621Z,16.05
2022-10-17T01:26:03.699Z,16.10
2022-10-17T01:28:50.428Z,15.88
2022-10-17T01:31:21.305Z,15.98
2022-10-17T01:33:48.762Z,17.80
2022-10-17T01:36:24.161Z,17.00
2022-10-17T01:38:57.319Z,16.40
2022-10-17T01:41:27.958Z,18.15
2022-10-17T01:43:59.136Z,17.65
2022-10-17T01:46:31.099Z,17.77
2022-10-17T01:49:01.550Z,18.23
2022-10-17T01:51:34.888Z,17.88
2022-10-17T01:54:05.216Z,17.45
2022-10-17T01:56:33.883Z,17.60
2022-10-17T01:59:03.610Z,18.30
2022-10-17T02:01:32.579Z,17.27
2022-10-17T02:04:01.831Z,17.80
2022-10-17T02:06:29.338Z,18.23
2022-10-17T02:08:57.230Z,18.33
2022-10-17T02:11:25.568Z,18.08
2022-10-17T02:14:06.434Z,17.48
2022-10-17T02:16:36.787Z,17.67
2022-10-17T02:19:23.175Z,18.30
2022-10-17T02:21:54.219Z,17.13
2022-10-17T02:24:29.714Z,17.50
2022-10-17T02:27:00.238Z,17.83
2022-10-17T02:29:29.989Z,16.63
2022-10-17T02:32:09.615Z,17.50
2022-10-17T02:34:39.394Z,17.20
2022-10-17T02:37:08.002Z,17.60
2022-10-17T02:39:36.458Z,17.73
2022-10-17T02:42:05.957Z,17.58
2022-10-17T02:44:34.342Z,17.30
2022-10-17T02:47:08.402Z,18.08
2022-10-17T02:49:39.919Z,16.95
2022-10-17T02:52:11.918Z,17.40
2022-10-17T02:54:45.602Z,18.00
2022-10-17T02:57:31.919Z,17.65
2022-10-17T03:00:00.338Z,17.13
2022-10-17T03:02:28.287Z,17.75
2022-10-17T03:04:56.826Z,17.63
2022-10-17T03:07:24.228Z,17.20
2022-10-17T03:09:51.697Z,17.65
2022-10-17T03:12:19.095Z,17.00
2022-10-17T03:14:46.654Z,16.55
2022-10-17T03:17:14.032Z,16.58
2022-10-17T03:19:41.644Z,16.85
2022-10-17T03:22:09.782Z,17.35
2022-10-17T03:24:38.207Z,17.30
2022-10-17T03:27:05.643Z,17.52
2022-10-17T03:29:33.037Z,17.05
2022-10-17T03:32:01.143Z,17.92
2022-10-17T03:34:28.580Z,17.77
2022-10-17T03:36:56.195Z,17.60
2022-10-17T03:39:24.620Z,17.77
2022-10-17T03:41:52.584Z,17.33
2022-10-17T03:44:20.934Z,17.20
2022-10-17T03:46:49.392Z,17.30
2022-10-17T03:49:16.851Z,17.67
2022-10-17T03:51:44.742Z,16.75
2022-10-17T03:54:15.196Z,17.38
2022-10-17T03:56:44.032Z,17.30
2022-10-17T03:59:15.104Z,17.08
2022-10-17T04:01:46.185Z,17.02
2022-10-17T04:04:14.157Z,16.55
2022-10-17T04:06:41.681Z,16.95
2022-10-17T04:09:09.398Z,17.17
2022-10-17T04:11:50.457Z,16.98
2022-10-17T04:14:17.931Z,16.90
2022-10-17T04:16:45.326Z,17.05
2022-10-17T04:19:17.431Z,17.02
2022-10-17T04:21:47.354Z,16.83
2022-10-17T04:24:16.025Z,17.23
2022-10-17T04:26:51.375Z,17.33
2022-10-17T04:29:20.206Z,17.33
2022-10-17T04:31:52.314Z,17.85
2022-10-17T04:34:25.015Z,17.70
2022-10-17T04:36:52.527Z,18.02
2022-10-17T04:39:20.480Z,16.60
2022-10-17T04:41:48.539Z,17.17
2022-10-17T04:44:16.274Z,17.63
2022-10-17T04:46:50.097Z,17.17
2022-10-17T04:49:17.533Z,16.95
2022-10-17T04:51:48.448Z,16.33
2022-10-17T04:54:30.013Z,16.95
2022-10-17T04:57:04.711Z,16.85
2022-10-17T04:59:32.495Z,17.02
2022-10-17T05:02:23.226Z,17.30
2022-10-17T05:04:51.548Z,17.10
2022-10-17T05:07:19.976Z,16.48
2022-10-17T05:10:11.872Z,18.25
2022-10-17T05:12:41.622Z,19.00
2022-10-17T05:15:09.281Z,17.55
2022-10-17T05:17:36.842Z,18.13
2022-10-17T05:20:04.708Z,16.20
2022-10-17T05:22:37.071Z,16.77
2022-10-17T05:25:07.584Z,17.73
2022-10-17T05:27:35.023Z,17.63
2022-10-17T05:30:02.639Z,18.17
2022-10-17T05:32:34.204Z,17.13
2022-10-17T05:35:03.741Z,17.38
2022-10-17T05:37:32.613Z,17.00
2022-10-17T05:40:01.622Z,18.27
2022-10-17T05:42:30.972Z,17.80
2022-10-17T05:44:58.968Z,17.05
2022-10-17T05:47:27.721Z,17.75
2022-10-17T05:49:55.487Z,17.90
2022-10-17T05:52:32.767Z,18.50
2022-10-17T05:55:12.872Z,19.40
2022-10-17T05:57:40.790Z,17.17
2022-10-17T06:00:13.311Z,18.70
2022-10-17T06:02:46.118Z,16.92
2022-10-17T06:05:16.298Z,17.48
2022-10-17T06:07:44.467Z,16.90
2022-10-17T06:10:15.992Z,16.70
2022-10-17T06:12:46.991Z,15.60
2022-10-17T06:15:15.713Z,15.88
2022-10-17T06:17:47.597Z,15.80
2022-10-17T06:20:15.232Z,15.77
2022-10-17T06:22:43.211Z,16.17
2022-10-17T06:25:16.223Z,16.10
2022-10-17T06:27:43.757Z,14.75
2022-10-17T06:30:12.515Z,14.30
2022-10-17T06:32:40.015Z,15.13
2022-10-17T06:35:07.631Z,15.73
2022-10-17T06:37:37.919Z,14.95
2022-10-17T06:40:10.470Z,14.15
2022-10-17T06:42:39.863Z,13.88
2022-10-17T06:45:47.595Z,13.48
2022-10-17T06:48:26.897Z,13.75
2022-10-17T06:51:12.496Z,14.00
2022-10-17T06:53:48.387Z,13.13
2022-10-17T06:56:48.199Z,14.02
2022-10-17T06:59:50.889Z,15.07
2022-10-17T07:02:24.228Z,14.15
2022-10-17T07:04:53.278Z,14.02
2022-10-17T07:07:20.708Z,13.95
2022-10-17T07:09:48.150Z,14.38
2022-10-17T07:12:17.614Z,14.27
2022-10-17T07:14:47.394Z,13.23
2022-10-17T07:17:18.632Z,13.50
2022-10-17T07:19:46.921Z,14.60
2022-10-17T07:22:14.363Z,14.27
2022-10-17T07:24:45.584Z,15.23
2022-10-17T07:27:21.103Z,13.63
2022-10-17T07:29:48.798Z,13.70
2022-10-17T07:32:21.713Z,16.35
2022-10-17T07:34:49.359Z,14.68
2022-10-17T07:37:16.920Z,13.35
2022-10-17T07:39:50.423Z,11.43
2022-10-17T07:42:17.976Z,11.82
2022-10-17T07:44:47.527Z,12.40
2022-10-17T07:47:18.606Z,11.10
2022-10-17T07:49:48.775Z,10.88
2022-10-17T07:52:16.818Z,11.30
2022-10-17T07:54:44.275Z,10.57
2022-10-17T07:57:11.750Z,10.07
2022-10-17T07:59:39.260Z,11.63
2022-10-17T08:02:08.187Z,13.88
2022-10-17T08:04:36.550Z,12.15
2022-10-17T08:07:18.583Z,11.52
2022-10-17T08:09:48.362Z,10.27
2022-10-17T08:12:16.262Z,11.73
2022-10-17T08:14:43.935Z,11.20
2022-10-17T08:17:11.372Z,11.10
2022-10-17T08:19:40.369Z,10.25
2022-10-17T08:22:08.097Z,10.85
2022-10-17T08:24:35.551Z,10.07
2022-10-17T08:27:04.021Z,10.55
2022-10-17T08:29:32.954Z,9.65
2022-10-17T08:32:01.915Z,18.33
2022-10-17T08:34:30.450Z,10.68
2022-10-17T08:36:57.885Z,11.30
2022-10-17T08:39:25.480Z,12.02
2022-10-17T08:42:01.870Z,8.63
2022-10-17T08:44:35.291Z,7.85
2022-10-17T08:47:04.571Z,10.50
2022-10-17T08:49:40.399Z,8.07
2022-10-17T08:52:31.198Z,6.60
2022-10-17T08:54:59.686Z,6.70
2022-10-17T08:57:29.064Z,8.82
2022-10-17T08:59:57.220Z,7.10
2022-10-17T09:02:42.880Z,7.20
2022-10-17T09:05:26.813Z,7.18
2022-10-17T09:08:00.709Z,6.38
2022-10-17T09:10:33.999Z,5.97
2022-10-17T09:13:06.773Z,6.93
2022-10-17T09:15:53.723Z,5.97
2022-10-17T09:18:33.135Z,5.20
2022-10-17T09:21:24.149Z,5.97
2022-10-17T09:24:09.334Z,5.15
2022-10-17T09:26:38.040Z,5.50
2022-10-17T09:29:12.516Z,4.30
2022-10-17T09:31:48.577Z,4.72
2022-10-17T09:34:17.390Z,4.50
2022-10-17T09:36:44.816Z,4.68
2022-10-17T09:39:12.365Z,4.50
2022-10-17T09:41:47.831Z,4.35
2022-10-17T09:44:15.281Z,4.03
2022-10-17T09:46:44.630Z,4.72
2022-10-17T09:49:17.213Z,4.25
2022-10-17T09:51:45.149Z,4.47
2022-10-17T09:54:21.489Z,4.22
2022-10-17T09:57:02.618Z,4.25
2022-10-17T09:59:33.135Z,4.25
2022-10-17T10:02:15.764Z,4.05
2022-10-17T10:05:04.552Z,4.00
2022-10-17T10:07:34.744Z,3.83
2022-10-17T10:10:03.268Z,4.18
2022-10-17T10:12:32.917Z,4.47
2022-10-17T10:15:01.082Z,4.93
2022-10-17T10:17:42.036Z,4.78
2022-10-17T10:20:27.851Z,6.75
2022-10-17T10:23:16.009Z,3.63
2022-10-17T10:26:12.293Z,5.45
2022-10-17T10:28:42.020Z,4.78
2022-10-17T10:31:10.633Z,5.55
2022-10-17T10:33:41.964Z,3.95
2022-10-17T10:36:09.695Z,3.70
2022-10-17T10:38:40.179Z,4.20
2022-10-17T10:41:08.943Z,4.72
2022-10-17T10:43:37.992Z,4.85
2022-10-17T10:46:07.135Z,4.90
2022-10-17T10:48:38.156Z,4.55
2022-10-17T10:51:16.635Z,4.30
2022-10-17T10:53:44.063Z,4.50
2022-10-17T10:56:19.859Z,4.78
2022-10-17T10:58:50.566Z,4.53
2022-10-17T11:01:21.617Z,4.80
2022-10-17T11:04:13.767Z,4.28
2022-10-17T11:06:43.174Z,4.50
2022-10-17T11:09:28.841Z,4.50
2022-10-17T11:12:12.054Z,4.57
2022-10-17T11:14:39.502Z,5.55
2022-10-17T11:17:11.436Z,4.60
2022-10-17T11:19:45.337Z,4.40
2022-10-17T11:22:16.941Z,5.15
2022-10-17T11:24:49.440Z,5.13
2022-10-17T11:27:16.886Z,4.30
2022-10-17T11:29:45.969Z,6.38
2022-10-17T11:32:20.656Z,5.20
2022-10-17T11:34:50.747Z,7.45
2022-10-17T11:37:27.458Z,4.30
2022-10-17T11:39:57.264Z,4.63
2022-10-17T11:42:27.540Z,5.00
2022-10-17T11:44:58.394Z,4.60
2022-10-17T11:47:25.874Z,4.13
2022-10-17T11:49:56.754Z,4.35
2022-10-17T11:52:55.944Z,4.13
2022-10-17T11:55:28.720Z,4.22
2022-10-17T11:57:58.940Z,4.15
2022-10-17T12:00:32.553Z,4.57
2022-10-17T12:03:14.667Z,4.28
2022-10-17T12:05:48.281Z,5.00
2022-10-17T12:08:18.826Z,4.85
2022-10-17T12:11:07.947Z,5.82
2022-10-17T12:13:36.215Z,6.22
2022-10-17T12:16:21.926Z,5.47
2022-10-17T12:18:53.713Z,5.30
2022-10-17T12:21:21.123Z,4.55
2022-10-17T12:23:55.346Z,3.95
2022-10-17T12:26:29.722Z,4.57
2022-10-17T12:28:57.991Z,3.88
2022-10-17T12:31:29.889Z,4.03
2022-10-17T12:34:02.281Z,4.47
2022-10-17T12:36:29.675Z,4.30
2022-10-17T12:39:03.027Z,3.83
2022-10-17T12:41:39.720Z,3.90
2022-10-17T12:44:14.079Z,4.10
2022-10-17T12:46:44.875Z,4.10
2022-10-17T12:49:21.615Z,3.72
2022-10-17T12:52:08.005Z,3.72
2022-10-17T12:54:47.321Z,4.30
2022-10-17T12:57:23.829Z,4.53
2022-10-17T12:59:51.510Z,3.75
2022-10-17T13:02:23.179Z,4.70
2022-10-17T13:04:51.581Z,4.07
2022-10-17T13:07:21.258Z,4.38
2022-10-17T13:09:49.028Z,9.93
2022-10-17T13:12:20.802Z,5.55
2022-10-17T13:14:48.856Z,5.18
2022-10-17T13:17:27.530Z,4.63
2022-10-17T13:19:55.657Z,4.50
2022-10-17T13:22:24.461Z,4.10
2022-10-17T13:24:52.976Z,4.72
2022-10-17T13:27:30.443Z,4.55
2022-10-17T13:29:58.848Z,5.07
2022-10-17T13:32:27.166Z,3.97
2022-10-17T13:35:11.615Z,4.22
2022-10-17T13:37:40.475Z,4.88
2022-10-17T13:40:30.707Z,6.57
2022-10-17T13:42:57.668Z,8.88
2022-10-17T13:45:31.216Z,4.45
2022-10-17T13:48:00.870Z,6.28
2022-10-17T13:50:43.562Z,4.40
2022-10-17T13:53:18.081Z,4.30
2022-10-17T13:56:22.981Z,5.10
2022-10-17T13:58:49.170Z,3.80
2022-10-17T14:01:16.972Z,3.95
2022-10-17T14:03:48.765Z,4.60
2022-10-17T14:06:27.283Z,5.35
2022-10-17T14:09:19.040Z,4.70
2022-10-17T14:11:57.217Z,5.88
2022-10-17T14:14:26.386Z,4.75
2022-10-17T14:16:53.984Z,5.57
2022-10-17T14:19:24.497Z,5.07
2022-10-17T14:21:54.405Z,4.40
2022-10-17T14:24:21.823Z,5.05
2022-10-17T14:26:59.741Z,6.07
2022-10-17T14:29:27.347Z,4.95
2022-10-17T14:32:02.474Z,5.40
2022-10-17T14:34:32.239Z,4.35
2022-10-17T14:37:00.040Z,4.40
2022-10-17T14:39:28.227Z,4.97
2022-10-17T14:41:56.708Z,4.60
2022-10-17T14:44:27.858Z,7.95
2022-10-17T14:46:59.344Z,4.93
2022-10-17T14:49:28.952Z,24.50
2022-10-17T14:52:17.637Z,5.93
2022-10-17T14:54:47.303Z,9.30
2022-10-17T14:57:19.323Z,22.83
2022-10-17T14:59:55.329Z,16.13
2022-10-17T15:02:26.840Z,8.52
2022-10-17T15:04:54.818Z,7.57
2022-10-17T15:07:23.786Z,8.57
2022-10-17T15:09:52.108Z,7.22
2022-10-17T15:12:21.530Z,10.45
2022-10-17T15:14:49.385Z,12.60
2022-10-17T15:17:35.088Z,15.15
2022-10-17T15:20:02.914Z,22.80
2022-10-17T15:22:31.827Z,8.15
2022-10-17T15:24:59.631Z,7.38
2022-10-17T15:27:27.924Z,18.20
2022-10-17T15:29:55.496Z,17.85
2022-10-17T15:32:22.919Z,14.13
2022-10-17T15:34:50.442Z,16.13
2022-10-17T15:37:20.950Z,16.42
2022-10-17T15:39:55.632Z,8.57
2022-10-17T15:42:24.017Z,9.27
2022-10-17T15:44:51.503Z,9.07
2022-10-17T15:47:31.161Z,9.05
2022-10-17T15:49:59.203Z,8.95
2022-10-17T15:52:26.862Z,8.55
2022-10-17T15:54:56.478Z,9.60
2022-10-17T15:57:28.357Z,9.30
2022-10-17T15:59:58.912Z,10.07
2022-10-17T16:02:26.501Z,10.95
2022-10-17T16:04:54.199Z,10.27
2022-10-17T16:07:21.917Z,11.32
2022-10-17T16:09:49.362Z,17.00
2022-10-17T16:12:25.456Z,12.07
2022-10-17T16:14:52.924Z,16.35
2022-10-17T16:17:20.318Z,15.55
2022-10-17T16:19:47.706Z,21.40
2022-10-17T16:22:39.970Z,27.63
2022-10-17T16:25:11.915Z,33.05
2022-10-17T16:27:40.160Z,27.17
2022-10-17T16:30:08.522Z,24.25
2022-10-17T16:32:36.208Z,23.42
2022-10-17T16:35:03.950Z,43.60
2022-10-17T16:37:31.484Z,30.00
2022-10-17T16:39:58.967Z,26.00
2022-10-17T16:42:26.502Z,25.67
2022-10-17T16:44:54.154Z,24.33
2022-10-17T16:47:21.632Z,27.08
2022-10-17T16:49:49.143Z,25.73
2022-10-17T16:52:16.550Z,28.15
2022-10-17T16:54:44.124Z,22.65
2022-10-17T16:57:11.532Z,22.17
2022-10-17T16:59:39.056Z,20.02
2022-10-17T17:02:06.513Z,21.65
2022-10-17T17:04:34.045Z,22.58
2022-10-17T17:07:01.560Z,22.02
2022-10-17T17:09:29.071Z,21.98
2022-10-17T17:11:56.727Z,21.75
2022-10-17T17:14:24.244Z,22.02
2022-10-17T17:16:51.764Z,24.58
2022-10-17T17:19:20.438Z,30.00
2022-10-17T17:21:51.002Z,30.73
2022-10-17T17:24:21.127Z,32.53
2022-10-17T17:26:52.667Z,32.08
2022-10-17T17:29:20.863Z,35.78
2022-10-17T17:31:48.625Z,36.38
2022-10-17T17:34:18.104Z,34.85
2022-10-17T17:36:46.167Z,35.50
2022-10-17T17:39:14.795Z,34.35
2022-10-17T17:41:43.332Z,33.80
2022-10-17T17:44:15.638Z,36.83
2022-10-17T17:46:44.409Z,36.78
2022-10-17T17:49:12.463Z,42.90
2022-10-17T17:51:41.606Z,58.28
2022-10-17T17:54:11.704Z,73.28
2022-10-17T17:56:39.633Z,63.05
2022-10-17T17:59:07.230Z,53.08
2022-10-17T18:01:38.387Z,50.95
2022-10-17T18:04:08.668Z,44.88
2022-10-17T18:06:37.033Z,34.90
2022-10-17T18:09:05.400Z,35.97
2022-10-17T18:11:33.066Z,37.25
2022-10-17T18:14:02.875Z,42.75
2022-10-17T18:16:31.522Z,58.05
2022-10-17T18:19:04.161Z,72.70
2022-10-17T18:21:34.599Z,55.42
2022-10-17T18:24:02.261Z,60.60
2022-10-17T18:26:29.810Z,61.00
2022-10-17T18:28:57.354Z,63.83
2022-10-17T18:31:28.519Z,64.93
2022-10-17T18:33:57.048Z,68.25
2022-10-17T18:36:26.236Z,69.47
2022-10-17T18:38:54.231Z,70.38
2022-10-17T18:41:22.891Z,72.53
2022-10-17T18:43:51.059Z,70.45
2022-10-17T18:46:28.979Z,68.15
2022-10-17T18:48:56.840Z,59.33
2022-10-17T18:51:25.088Z,48.83
2022-10-17T18:53:53.814Z,44.25
2022-10-17T18:56:21.854Z,41.63
2022-10-17T18:58:49.358Z,39.83
2022-10-17T19:01:18.751Z,40.40
2022-10-17T19:03:47.273Z,40.63
2022-10-17T19:06:16.080Z,39.55
2022-10-17T19:08:44.333Z,41.30
2022-10-17T19:11:13.518Z,37.03
2022-10-17T19:13:41.784Z,30.92
2022-10-17T19:16:10.051Z,25.40
2022-10-17T19:18:37.955Z,24.92
2022-10-17T19:21:06.394Z,22.05
2022-10-17T19:23:35.895Z,20.33
2022-10-17T19:26:04.168Z,19.80
2022-10-17T19:28:31.729Z,20.40
2022-10-17T19:30:59.182Z,19.92
2022-10-17T19:36:00.120Z,23.27
2022-10-17T19:38:27.747Z,26.48
2022-10-17T19:40:55.284Z,21.45
2022-10-17T19:43:22.728Z,20.35
2022-10-17T19:46:00.429Z,20.52
2022-10-17T19:48:27.940Z,21.48
2022-10-17T19:50:55.391Z,21.67
2022-10-17T19:53:24.094Z,23.08
2022-10-17T19:55:52.384Z,22.35
2022-10-17T19:58:20.344Z,22.08
2022-10-17T20:00:52.149Z,21.30
2022-10-17T20:03:19.611Z,22.20
2022-10-17T20:05:47.005Z,22.17
2022-10-17T20:08:15.054Z,22.90
2022-10-17T20:10:46.122Z,22.65
2022-10-17T20:13:14.261Z,22.90
2022-10-17T20:15:41.666Z,25.15
2022-10-17T20:18:09.656Z,25.58
2022-10-17T20:20:37.675Z,25.48
2022-10-17T20:23:05.707Z,26.80
2022-10-17T20:25:38.341Z,29.45
2022-10-17T20:28:06.228Z,29.35
2022-10-17T20:30:33.645Z,31.25
2022-10-17T20:33:01.066Z,31.35
2022-10-17T20:35:28.459Z,31.35
2022-10-17T20:37:56.061Z,31.92
2022-10-17T20:40:34.803Z,31.95
2022-10-17T20:43:03.422Z,31.65
2022-10-17T20:45:44.100Z,31.67
2022-10-17T20:48:18.430Z,29.33
2022-10-17T20:50:45.893Z,28.98
2022-10-17T20:56:02.914Z,24.98
2022-10-17T20:58:30.442Z,24.17
2022-10-17T21:00:58.124Z,24.27
2022-10-17T21:03:26.614Z,24.25
2022-10-17T21:05:54.148Z,23.45
2022-10-17T21:08:21.563Z,24.42
2022-10-17T21:10:48.993Z,23.88
2022-10-17T21:13:16.440Z,25.33
2022-10-17T21:15:43.844Z,24.42
2022-10-17T21:18:11.510Z,24.77
2022-10-17T21:20:39.137Z,23.90
2022-10-17T21:23:06.596Z,24.60
2022-10-17T21:25:33.986Z,22.92
2022-10-17T21:28:01.423Z,25.92
2022-10-17T21:30:28.806Z,24.27
2022-10-17T21:32:56.379Z,22.70
2022-10-17T21:35:23.995Z,20.67
2022-10-17T21:37:52.062Z,21.77
2022-10-17T21:40:19.492Z,22.95
2022-10-17T21:42:46.952Z,21.15
2022-10-17T21:45:24.896Z,22.95
2022-10-17T21:48:12.343Z,22.05
2022-10-17T21:50:41.489Z,22.98
2022-10-17T21:53:08.968Z,24.33
2022-10-17T21:55:37.647Z,24.35
2022-10-17T21:58:05.302Z,23.88
2022-10-17T22:00:32.735Z,25.95
2022-10-17T22:03:03.615Z,25.05
2022-10-17T22:05:32.093Z,25.63
2022-10-17T22:07:59.485Z,26.48
2022-10-17T22:10:27.004Z,26.02
2022-10-17T22:12:54.391Z,25.52
2022-10-17T22:15:21.774Z,24.20
2022-10-17T22:17:49.426Z,24.35
2022-10-17T22:20:16.885Z,24.38
2022-10-17T22:22:44.364Z,22.65
2022-10-17T22:25:11.863Z,22.63
2022-10-17T22:27:39.300Z,21.50
2022-10-17T22:30:07.207Z,22.67
2022-10-17T22:32:34.613Z,21.83
2022-10-17T22:35:02.001Z,21.88
2022-10-17T22:37:29.651Z,22.23
2022-10-17T22:39:57.251Z,22.17
2022-10-17T22:42:24.758Z,20.30
2022-10-17T22:44:52.163Z,21.30
2022-10-17T22:47:19.634Z,22.27
2022-10-17T22:49:47.120Z,22.38
2022-10-17T22:52:14.554Z,23.38
2022-10-17T22:54:41.918Z,22.35
2022-10-17T22:57:09.364Z,22.67
2022-10-17T22:59:36.753Z,22.27
2022-10-17T23:02:04.235Z,23.40
2022-10-17T23:04:31.614Z,23.67
2022-10-17T23:06:59.067Z,23.42
2022-10-17T23:11:54.777Z,21.85
2022-10-17T23:14:22.163Z,20.75
2022-10-17T23:16:49.599Z,22.40
2022-10-17T23:19:17.050Z,22.20
2022-10-17T23:21:44.544Z,20.60
2022-10-17T23:24:11.932Z,20.75
2022-10-17T23:26:39.376Z,20.05
2022-10-17T23:29:06.794Z,18.65
2022-10-17T23:31:34.251Z,18.73
2022-10-17T23:34:01.627Z,18.60
2022-10-17T23:36:29.174Z,19.00
2022-10-17T23:38:58.549Z,19.45
2022-10-17T23:41:26.268Z,18.23
2022-10-17T23:43:53.656Z,18.05
2022-10-17T23:46:21.093Z,19.20
2022-10-17T23:48:48.565Z,18.00
2022-10-17T23:51:15.972Z,17.80
2022-10-17T23:53:43.504Z,17.85
2022-10-17T23:56:11.556Z,18.58
2022-10-17T23:58:39.883Z,17.35
